Hlavní strana
METAR-TAF:

METAR-TAF

Letiště :

Mezinárodní letiště princezny Juliany

Sint Maarten, Nizozemské Antily

zeměpisná šířka: 18-03N, zeměpisná délka: 063-07W, výška: 4 m

Aktuální stav počasí

Zpráva byla vytvořena před 46 minutami, v 01:00 UTC
Východní vítr 7 kt, proměnlivý mezi severovýchodním a východojihovýchodním
Teplota 29°C
Vlhkost vzduchu 70%
Tlak 1014 hPa
Viditelnost 10 km a více
Skoro jasno ve výšce 1900 ft

METAR: TNCM 240100Z 08007KT 050V110 9999 FEW019 29/23 Q1014 NOSIG RMK A2995

Čas: 21:46 (01:46 UTC)

Předpověď počasí

Zpráva byla vytvořena před 2 hodinami a 6 minutami, v 23:40 UTC
Předpověď platná od 24 v 00 UTC do 24 v 24 UTC
Východní vítr 8 kt
Viditelnost: 10 km
Polojasno ve výšce 1800 ft
Polojasno ve výšce 3000 ft
přeháňky v blízkosti
Od 24 v 1430 UTC
Východní vítr 15 kt
Viditelnost: 10 km
Polojasno ve výšce 2200 ft
Polojasno ve výšce 4000 ft

TAF: TNCM 232340Z 2400/2424 09008KT P6SM VCSH SCT018 SCT030 FM241430 10015KT P6SM SCT022 SCT040

Stav a předpovědi počasí z více než 4 000 letišť (zprávy METAR a TAF).

Červené a žluté tečky na mapě představují dostupné meteorologické stanice.

Když kurzor umístíte na tečku, zobrazí se název stanice.

Pak kliknutím zobrazíte stav a předpověď počasí.

Chcete-li změnit mapu, kliknutím na zelené tlačítko se znaménkem +mapu přiblížíte, kliknutím na zelené tlačítko se znaménkem – mapu oddálíte a kliknutím na zelené šipky přejdete na sousední mapy.


METAR-TAF: